sensor_id;sensor_type;location;lat;lon;timestamp;pressure;altitude;pressure_sealevel;temperature;humidity
52693;BME280;68218;51.012;-1.648;2023-02-28T00:00:47;102332.06;;;2.16;73.29
52693;BME280;68218;51.012;-1.648;2023-02-28T00:03:13;102328.06;;;2.12;73.27
52693;BME280;68218;51.012;-1.648;2023-02-28T00:05:38;102324.72;;;2.10;73.37
52693;BME280;68218;51.012;-1.648;2023-02-28T00:08:04;102325.69;;;2.09;72.90
52693;BME280;68218;51.012;-1.648;2023-02-28T00:10:30;102325.69;;;2.09;72.68
52693;BME280;68218;51.012;-1.648;2023-02-28T00:13:04;102327.25;;;2.11;72.63
52693;BME280;68218;51.012;-1.648;2023-02-28T00:15:30;102324.94;;;2.16;71.98
52693;BME280;68218;51.012;-1.648;2023-02-28T00:17:56;102320.91;;;2.12;72.25
52693;BME280;68218;51.012;-1.648;2023-02-28T00:20:21;102333.69;;;2.09;72.32
52693;BME280;68218;51.012;-1.648;2023-02-28T00:22:49;102332.19;;;2.06;72.34
52693;BME280;68218;51.012;-1.648;2023-02-28T00:25:17;102329.53;;;2.06;72.25
52693;BME280;68218;51.012;-1.648;2023-02-28T00:27:43;102329.81;;;2.03;72.64
52693;BME280;68218;51.012;-1.648;2023-02-28T00:30:13;102329.97;;;2.01;72.93
52693;BME280;68218;51.012;-1.648;2023-02-28T00:32:39;102331.44;;;1.96;72.99
52693;BME280;68218;51.012;-1.648;2023-02-28T00:35:05;102327.53;;;1.90;73.21
52693;BME280;68218;51.012;-1.648;2023-02-28T00:37:31;102325.88;;;1.89;73.38
52693;BME280;68218;51.012;-1.648;2023-02-28T00:39:56;102331.59;;;1.94;73.60
52693;BME280;68218;51.012;-1.648;2023-02-28T00:42:23;102329.06;;;1.93;73.71
52693;BME280;68218;51.012;-1.648;2023-02-28T00:44:48;102333.94;;;1.97;73.27
52693;BME280;68218;51.012;-1.648;2023-02-28T00:47:13;102331.88;;;1.91;73.77
52693;BME280;68218;51.012;-1.648;2023-02-28T00:49:39;102341.19;;;1.87;73.68
52693;BME280;68218;51.012;-1.648;2023-02-28T00:52:04;102338.50;;;1.87;74.05
52693;BME280;68218;51.012;-1.648;2023-02-28T00:54:30;102335.16;;;1.85;74.11
52693;BME280;68218;51.012;-1.648;2023-02-28T00:56:55;102335.78;;;1.79;74.24
52693;BME280;68218;51.012;-1.648;2023-02-28T00:59:21;102337.75;;;1.77;74.80
52693;BME280;68218;51.012;-1.648;2023-02-28T01:01:47;102343.38;;;1.74;74.83
52693;BME280;68218;51.012;-1.648;2023-02-28T01:04:13;102343.66;;;1.71;74.91
52693;BME280;68218;51.012;-1.648;2023-02-28T01:06:39;102342.84;;;1.70;75.44
52693;BME280;68218;51.012;-1.648;2023-02-28T01:09:05;102344.66;;;1.69;75.32
52693;BME280;68218;51.012;-1.648;2023-02-28T01:11:31;102342.63;;;1.63;75.10
52693;BME280;68218;51.012;-1.648;2023-02-28T01:13:58;102359.25;;;1.65;75.66
52693;BME280;68218;51.012;-1.648;2023-02-28T01:16:24;102347.25;;;1.61;75.66
52693;BME280;68218;51.012;-1.648;2023-02-28T01:18:50;102356.88;;;1.62;75.85
52693;BME280;68218;51.012;-1.648;2023-02-28T01:21:17;102363.34;;;1.60;75.91
52693;BME280;68218;51.012;-1.648;2023-02-28T01:23:42;102354.38;;;1.61;75.94
52693;BME280;68218;51.012;-1.648;2023-02-28T01:26:16;102355.66;;;1.57;76.02
52693;BME280;68218;51.012;-1.648;2023-02-28T01:28:42;102360.47;;;1.53;76.19
52693;BME280;68218;51.012;-1.648;2023-02-28T01:31:09;102359.78;;;1.51;76.56
52693;BME280;68218;51.012;-1.648;2023-02-28T01:33:34;102362.03;;;1.46;76.75
52693;BME280;68218;51.012;-1.648;2023-02-28T01:36:07;102358.00;;;1.42;76.96
52693;BME280;68218;51.012;-1.648;2023-02-28T01:38:34;102350.50;;;1.37;77.12
52693;BME280;68218;51.012;-1.648;2023-02-28T01:40:59;102354.94;;;1.37;77.22
52693;BME280;68218;51.012;-1.648;2023-02-28T01:43:30;102348.13;;;1.34;77.65
52693;BME280;68218;51.012;-1.648;2023-02-28T01:45:58;102355.25;;;1.34;77.68
52693;BME280;68218;51.012;-1.648;2023-02-28T01:48:31;102343.09;;;1.31;77.76
52693;BME280;68218;51.012;-1.648;2023-02-28T01:51:02;102349.84;;;1.25;78.00
52693;BME280;68218;51.012;-1.648;2023-02-28T01:53:34;102351.13;;;1.21;78.44
52693;BME280;68218;51.012;-1.648;2023-02-28T01:56:04;102343.28;;;1.20;78.39
52693;BME280;68218;51.012;-1.648;2023-02-28T01:58:31;102345.56;;;1.15;78.63
52693;BME280;68218;51.012;-1.648;2023-02-28T02:00:57;102344.19;;;1.10;79.09
52693;BME280;68218;51.012;-1.648;2023-02-28T02:03:23;102347.00;;;1.09;79.47
52693;BME280;68218;51.012;-1.648;2023-02-28T02:05:49;102334.53;;;1.09;79.23
52693;BME280;68218;51.012;-1.648;2023-02-28T02:08:33;102340.38;;;1.13;79.67
52693;BME280;68218;51.012;-1.648;2023-02-28T02:11:00;102339.69;;;1.11;79.42
52693;BME280;68218;51.012;-1.648;2023-02-28T02:24:52;102330.66;;;1.04;80.81
52693;BME280;68218;51.012;-1.648;2023-02-28T02:30:40;102334.69;;;1.08;81.38
52693;BME280;68218;51.012;-1.648;2023-02-28T02:33:11;102331.19;;;1.07;81.71
52693;BME280;68218;51.012;-1.648;2023-02-28T02:44:00;102342.44;;;1.01;82.54
52693;BME280;68218;51.012;-1.648;2023-02-28T02:46:37;102350.22;;;1.03;82.66
52693;BME280;68218;51.012;-1.648;2023-02-28T02:49:08;102337.78;;;1.03;82.63
52693;BME280;68218;51.012;-1.648;2023-02-28T02:51:35;102337.66;;;1.05;82.90
52693;BME280;68218;51.012;-1.648;2023-02-28T02:54:16;102335.13;;;1.03;83.10
52693;BME280;68218;51.012;-1.648;2023-02-28T02:56:45;102330.34;;;1.07;83.44
52693;BME280;68218;51.012;-1.648;2023-02-28T02:59:15;102329.53;;;1.06;83.52
52693;BME280;68218;51.012;-1.648;2023-02-28T03:01:50;102335.53;;;1.08;83.38
52693;BME280;68218;51.012;-1.648;2023-02-28T03:04:19;102330.06;;;1.10;83.41
52693;BME280;68218;51.012;-1.648;2023-02-28T03:06:45;102330.34;;;1.07;83.61
52693;BME280;68218;51.012;-1.648;2023-02-28T03:09:10;102331.03;;;1.09;83.67
52693;BME280;68218;51.012;-1.648;2023-02-28T03:11:36;102342.06;;;1.14;83.80
52693;BME280;68218;51.012;-1.648;2023-02-28T03:14:15;102331.03;;;1.09;84.08
52693;BME280;68218;51.012;-1.648;2023-02-28T03:16:52;102331.03;;;1.09;84.42
52693;BME280;68218;51.012;-1.648;2023-02-28T03:28:20;102346.59;;;1.04;85.08
52693;BME280;68218;51.012;-1.648;2023-02-28T03:30:54;102347.03;;;0.99;85.27
52693;BME280;68218;51.012;-1.648;2023-02-28T03:33:30;102338.47;;;1.05;85.34
52693;BME280;68218;51.012;-1.648;2023-02-28T03:35:58;102351.75;;;1.05;85.34
52693;BME280;68218;51.012;-1.648;2023-02-28T03:41:13;102347.50;;;0.95;85.99
52693;BME280;68218;51.012;-1.648;2023-02-28T03:43:43;102343.81;;;0.96;86.30
52693;BME280;68218;51.012;-1.648;2023-02-28T03:46:13;102342.16;;;0.95;86.52
52693;BME280;68218;51.012;-1.648;2023-02-28T03:48:48;102341.84;;;0.98;86.32
52693;BME280;68218;51.012;-1.648;2023-02-28T03:51:18;102338.47;;;1.05;86.50
52693;BME280;68218;51.012;-1.648;2023-02-28T03:53:50;102345.75;;;1.03;86.68
52693;BME280;68218;51.012;-1.648;2023-02-28T03:56:29;102348.84;;;0.99;86.79
52693;BME280;68218;51.012;-1.648;2023-02-28T04:01:41;102350.53;;;1.00;86.82
52693;BME280;68218;51.012;-1.648;2023-02-28T04:04:11;102340.16;;;1.06;87.18
52693;BME280;68218;51.012;-1.648;2023-02-28T04:06:37;102340.44;;;1.03;86.77
52693;BME280;68218;51.012;-1.648;2023-02-28T04:09:04;102335.00;;;1.05;87.02
52693;BME280;68218;51.012;-1.648;2023-02-28T04:14:01;102337.09;;;1.01;87.29
52693;BME280;68218;51.012;-1.648;2023-02-28T04:16:28;102324.78;;;1.00;87.21
52693;BME280;68218;51.012;-1.648;2023-02-28T04:18:53;102321.47;;;0.98;87.41
52693;BME280;68218;51.012;-1.648;2023-02-28T04:21:19;102329.28;;;1.00;87.40
52693;BME280;68218;51.012;-1.648;2023-02-28T04:23:47;102328.56;;;0.98;87.39
52693;BME280;68218;51.012;-1.648;2023-02-28T04:26:12;102333.19;;;0.96;87.55
52693;BME280;68218;51.012;-1.648;2023-02-28T04:28:38;102336.84;;;0.95;87.08
52693;BME280;68218;51.012;-1.648;2023-02-28T04:31:04;102340.19;;;0.97;87.42
52693;BME280;68218;51.012;-1.648;2023-02-28T04:33:31;102328.56;;;0.98;87.55
52693;BME280;68218;51.012;-1.648;2023-02-28T04:36:05;102334.88;;;0.97;87.30
52693;BME280;68218;51.012;-1.648;2023-02-28T04:38:36;102342.16;;;0.95;87.68
52693;BME280;68218;51.012;-1.648;2023-02-28T04:41:02;102342.84;;;0.97;87.44
52693;BME280;68218;51.012;-1.648;2023-02-28T04:43:28;102335.19;;;0.93;87.59
52693;BME280;68218;51.012;-1.648;2023-02-28T04:45:55;102343.56;;;0.89;87.62
52693;BME280;68218;51.012;-1.648;2023-02-28T04:48:25;102338.78;;;0.92;87.30
52693;BME280;68218;51.012;-1.648;2023-02-28T04:50:52;102354.06;;;0.90;87.70
52693;BME280;68218;51.012;-1.648;2023-02-28T04:53:18;102355.88;;;0.90;87.50
52693;BME280;68218;51.012;-1.648;2023-02-28T04:55:43;102352.47;;;0.98;87.37
52693;BME280;68218;51.012;-1.648;2023-02-28T04:58:09;102356.00;;;0.98;87.54
52693;BME280;68218;51.012;-1.648;2023-02-28T05:00:34;102371.94;;;0.98;87.43
52693;BME280;68218;51.012;-1.648;2023-02-28T05:03:00;102372.38;;;0.93;87.57
52693;BME280;68218;51.012;-1.648;2023-02-28T05:05:25;102369.72;;;0.93;87.41
52693;BME280;68218;51.012;-1.648;2023-02-28T05:07:51;102378.06;;;0.99;87.63
52693;BME280;68218;51.012;-1.648;2023-02-28T05:10:18;102382.03;;;0.95;87.72
52693;BME280;68218;51.012;-1.648;2023-02-28T05:12:44;102380.91;;;0.87;87.85
52693;BME280;68218;51.012;-1.648;2023-02-28T05:15:13;102383.00;;;0.93;87.80
52693;BME280;68218;51.012;-1.648;2023-02-28T05:17:39;102387.47;;;0.93;87.95
52693;BME280;68218;51.012;-1.648;2023-02-28T05:20:05;102385.09;;;0.90;88.11
52693;BME280;68218;51.012;-1.648;2023-02-28T05:22:31;102382.59;;;0.88;87.91
52693;BME280;68218;51.012;-1.648;2023-02-28T05:24:56;102379.38;;;0.95;87.93
52693;BME280;68218;51.012;-1.648;2023-02-28T05:27:22;102383.09;;;1.02;87.68
52693;BME280;68218;51.012;-1.648;2023-02-28T05:29:48;102384.06;;;1.01;87.68
52693;BME280;68218;51.012;-1.648;2023-02-28T05:32:13;102376.78;;;1.03;87.77
52693;BME280;68218;51.012;-1.648;2023-02-28T05:34:39;102383.94;;;1.02;87.66
52693;BME280;68218;51.012;-1.648;2023-02-28T05:37:06;102391.63;;;1.05;87.39
52693;BME280;68218;51.012;-1.648;2023-02-28T05:39:35;102390.19;;;1.11;87.32
52693;BME280;68218;51.012;-1.648;2023-02-28T05:42:01;102384.88;;;1.11;86.97
52693;BME280;68218;51.012;-1.648;2023-02-28T05:44:26;102382.75;;;1.15;87.25
52693;BME280;68218;51.012;-1.648;2023-02-28T05:46:52;102378.44;;;1.14;87.20
52693;BME280;68218;51.012;-1.648;2023-02-28T05:49:17;102386.94;;;1.17;87.13
52693;BME280;68218;51.012;-1.648;2023-02-28T05:51:43;102383.47;;;1.17;86.78
52693;BME280;68218;51.012;-1.648;2023-02-28T05:54:08;102371.59;;;1.11;86.54
52693;BME280;68218;51.012;-1.648;2023-02-28T05:56:34;102378.88;;;1.09;86.79
52693;BME280;68218;51.012;-1.648;2023-02-28T05:59:00;102373.41;;;1.10;86.62
52693;BME280;68218;51.012;-1.648;2023-02-28T06:01:34;102383.75;;;1.14;86.75
52693;BME280;68218;51.012;-1.648;2023-02-28T06:04:01;102383.91;;;1.12;86.58
52693;BME280;68218;51.012;-1.648;2023-02-28T06:06:28;102391.19;;;1.10;86.61
52693;BME280;68218;51.012;-1.648;2023-02-28T06:08:55;102386.44;;;1.04;86.79
52693;BME280;68218;51.012;-1.648;2023-02-28T06:11:20;102385.72;;;1.11;86.68
52693;BME280;68218;51.012;-1.648;2023-02-28T06:13:46;102392.41;;;1.16;86.12
52693;BME280;68218;51.012;-1.648;2023-02-28T06:16:11;102388.22;;;1.13;86.27
52693;BME280;68218;51.012;-1.648;2023-02-28T06:18:38;102387.53;;;1.11;86.27
52693;BME280;68218;51.012;-1.648;2023-02-28T06:21:03;102390.88;;;1.13;86.23
52693;BME280;68218;51.012;-1.648;2023-02-28T06:23:28;102399.84;;;1.12;86.19
52693;BME280;68218;51.012;-1.648;2023-02-28T06:25:54;102393.84;;;1.10;86.20
52693;BME280;68218;51.012;-1.648;2023-02-28T06:28:23;102399.44;;;1.07;86.49
52693;BME280;68218;51.012;-1.648;2023-02-28T06:30:49;102392.69;;;1.12;86.24
52693;BME280;68218;51.012;-1.648;2023-02-28T06:33:14;102390.03;;;1.12;86.35
52693;BME280;68218;51.012;-1.648;2023-02-28T06:35:40;102387.81;;;1.08;86.51
52693;BME280;68218;51.012;-1.648;2023-02-28T06:38:08;102398.75;;;1.05;86.80
52693;BME280;68218;51.012;-1.648;2023-02-28T06:40:33;102400.56;;;1.04;86.71
52693;BME280;68218;51.012;-1.648;2023-02-28T06:43:00;102408.84;;;1.01;86.79
52693;BME280;68218;51.012;-1.648;2023-02-28T06:45:26;102397.06;;;1.04;87.02
52693;BME280;68218;51.012;-1.648;2023-02-28T06:47:51;102401.00;;;1.00;87.18
52693;BME280;68218;51.012;-1.648;2023-02-28T06:50:17;102409.25;;;1.06;87.01
52693;BME280;68218;51.012;-1.648;2023-02-28T06:52:44;102415.66;;;1.04;87.09
52693;BME280;68218;51.012;-1.648;2023-02-28T06:55:10;102413.00;;;1.04;87.22
52693;BME280;68218;51.012;-1.648;2023-02-28T06:57:36;102415.25;;;1.08;87.11
52693;BME280;68218;51.012;-1.648;2023-02-28T07:00:07;102414.50;;;1.16;86.76
52693;BME280;68218;51.012;-1.648;2023-02-28T07:02:35;102412.69;;;1.17;86.93
52693;BME280;68218;51.012;-1.648;2023-02-28T07:05:00;102418.63;;;1.28;86.44
52693;BME280;68218;51.012;-1.648;2023-02-28T07:07:26;102419.78;;;1.26;86.46
52693;BME280;68218;51.012;-1.648;2023-02-28T07:09:51;102419.25;;;1.22;86.20
52693;BME280;68218;51.012;-1.648;2023-02-28T07:12:17;102413.78;;;1.24;86.57
52693;BME280;68218;51.012;-1.648;2023-02-28T07:14:42;102419.63;;;1.27;86.05
52693;BME280;68218;51.012;-1.648;2023-02-28T07:17:09;102421.63;;;1.25;86.45
52693;BME280;68218;51.012;-1.648;2023-02-28T07:19:35;102426.63;;;1.28;86.00
52693;BME280;68218;51.012;-1.648;2023-02-28T07:22:01;102426.31;;;1.31;85.77
52693;BME280;68218;51.012;-1.648;2023-02-28T07:24:28;102428.13;;;1.41;85.46
52693;BME280;68218;51.012;-1.648;2023-02-28T07:26:54;102427.81;;;1.44;85.29
52693;BME280;68218;51.012;-1.648;2023-02-28T07:29:20;102420.59;;;1.54;84.72
52693;BME280;68218;51.012;-1.648;2023-02-28T07:31:45;102425.50;;;1.59;84.44
52693;BME280;68218;51.012;-1.648;2023-02-28T07:34:12;102425.75;;;1.65;84.22
52693;BME280;68218;51.012;-1.648;2023-02-28T07:36:37;102425.16;;;1.72;84.38
52693;BME280;68218;51.012;-1.648;2023-02-28T07:39:03;102420.38;;;1.75;83.68
52693;BME280;68218;51.012;-1.648;2023-02-28T07:41:29;102427.88;;;1.80;83.58
52693;BME280;68218;51.012;-1.648;2023-02-28T07:43:58;102432.59;;;1.86;82.94
52693;BME280;68218;51.012;-1.648;2023-02-28T07:46:25;102441.50;;;1.95;83.07
52693;BME280;68218;51.012;-1.648;2023-02-28T07:48:50;102434.44;;;2.03;82.21
52693;BME280;68218;51.012;-1.648;2023-02-28T07:51:16;102437.47;;;2.09;81.93
52693;BME280;68218;51.012;-1.648;2023-02-28T07:53:42;102432.91;;;2.19;81.71
52693;BME280;68218;51.012;-1.648;2023-02-28T07:56:08;102432.63;;;2.22;81.71
52693;BME280;68218;51.012;-1.648;2023-02-28T07:58:33;102433.38;;;2.32;81.17
52693;BME280;68218;51.012;-1.648;2023-02-28T08:01:07;102429.09;;;2.39;81.30
52693;BME280;68218;51.012;-1.648;2023-02-28T08:03:33;102433.69;;;2.47;80.94
52693;BME280;68218;51.012;-1.648;2023-02-28T08:05:58;102429.69;;;2.51;80.37
52693;BME280;68218;51.012;-1.648;2023-02-28T08:08:24;102432.13;;;2.62;80.31
52693;BME280;68218;51.012;-1.648;2023-02-28T08:10:53;102431.78;;;2.66;79.89
52693;BME280;68218;51.012;-1.648;2023-02-28T08:13:18;102442.81;;;2.71;79.87
52693;BME280;68218;51.012;-1.648;2023-02-28T08:15:44;102436.72;;;2.78;79.88
52693;BME280;68218;51.012;-1.648;2023-02-28T08:18:11;102437.16;;;2.92;79.76
52693;BME280;68218;51.012;-1.648;2023-02-28T08:20:36;102436.66;;;2.96;79.29
52693;BME280;68218;51.012;-1.648;2023-02-28T08:23:01;102441.38;;;3.03;79.35
52693;BME280;68218;51.012;-1.648;2023-02-28T08:25:27;102437.94;;;3.10;79.48
52693;BME280;68218;51.012;-1.648;2023-02-28T08:27:52;102437.59;;;3.13;79.01
52693;BME280;68218;51.012;-1.648;2023-02-28T08:30:18;102442.31;;;3.19;78.76
52693;BME280;68218;51.012;-1.648;2023-02-28T08:32:43;102448.47;;;3.20;78.97
52693;BME280;68218;51.012;-1.648;2023-02-28T08:35:09;102448.19;;;3.31;79.04
52693;BME280;68218;51.012;-1.648;2023-02-28T08:37:34;102440.09;;;3.41;78.07
52693;BME280;68218;51.012;-1.648;2023-02-28T08:40:00;102432.94;;;3.50;77.94
52693;BME280;68218;51.012;-1.648;2023-02-28T08:42:25;102430.78;;;3.53;77.76
52693;BME280;68218;51.012;-1.648;2023-02-28T08:44:51;102440.75;;;3.43;77.42
52693;BME280;68218;51.012;-1.648;2023-02-28T08:47:16;102441.25;;;3.47;77.74
52693;BME280;68218;51.012;-1.648;2023-02-28T08:49:42;102437.00;;;3.62;77.56
52693;BME280;68218;51.012;-1.648;2023-02-28T08:52:07;102442.00;;;3.65;77.41
52693;BME280;68218;51.012;-1.648;2023-02-28T08:54:33;102433.56;;;3.86;76.38
52693;BME280;68218;51.012;-1.648;2023-02-28T08:56:59;102425.19;;;3.81;76.52
52693;BME280;68218;51.012;-1.648;2023-02-28T08:59:24;102428.06;;;3.96;76.41
52693;BME280;68218;51.012;-1.648;2023-02-28T09:01:50;102438.91;;;3.94;75.76
52693;BME280;68218;51.012;-1.648;2023-02-28T09:04:15;102438.59;;;4.14;75.31
52693;BME280;68218;51.012;-1.648;2023-02-28T09:06:41;102441.28;;;4.22;74.88
52693;BME280;68218;51.012;-1.648;2023-02-28T09:09:06;102439.59;;;4.21;74.93
52693;BME280;68218;51.012;-1.648;2023-02-28T09:11:32;102438.31;;;4.34;74.16
52693;BME280;68218;51.012;-1.648;2023-02-28T09:13:58;102437.44;;;4.41;73.96
52693;BME280;68218;51.012;-1.648;2023-02-28T09:16:25;102444.31;;;4.44;74.25
52693;BME280;68218;51.012;-1.648;2023-02-28T09:18:51;102440.63;;;4.53;74.48
52693;BME280;68218;51.012;-1.648;2023-02-28T09:21:18;102435.09;;;4.38;73.80
52693;BME280;68218;51.012;-1.648;2023-02-28T09:23:45;102442.81;;;4.49;73.32
52693;BME280;68218;51.012;-1.648;2023-02-28T09:26:25;102430.94;;;4.60;73.33
52693;BME280;68218;51.012;-1.648;2023-02-28T09:28:52;102425.09;;;4.57;73.54
52693;BME280;68218;51.012;-1.648;2023-02-28T09:31:21;102434.75;;;4.82;73.21
52693;BME280;68218;51.012;-1.648;2023-02-28T09:33:52;102433.44;;;4.70;73.11
52693;BME280;68218;51.012;-1.648;2023-02-28T09:36:19;102435.28;;;4.53;73.63
52693;BME280;68218;51.012;-1.648;2023-02-28T09:38:45;102441.97;;;4.49;73.69
52693;BME280;68218;51.012;-1.648;2023-02-28T09:41:15;102438.13;;;4.52;73.65
52693;BME280;68218;51.012;-1.648;2023-02-28T09:43:45;102437.75;;;4.71;73.63
52693;BME280;68218;51.012;-1.648;2023-02-28T09:48:47;102442.13;;;4.64;74.17
52693;BME280;68218;51.012;-1.648;2023-02-28T09:54:20;102448.31;;;4.56;73.33
52693;BME280;68218;51.012;-1.648;2023-02-28T09:57:13;102440.63;;;4.45;73.60
52693;BME280;68218;51.012;-1.648;2023-02-28T10:00:02;102440.78;;;4.60;73.01
52693;BME280;68218;51.012;-1.648;2023-02-28T10:02:46;102442.28;;;4.71;73.89
52693;BME280;68218;51.012;-1.648;2023-02-28T10:05:14;102453.63;;;4.81;72.99
52693;BME280;68218;51.012;-1.648;2023-02-28T10:07:57;102439.75;;;4.77;72.79
52693;BME280;68218;51.012;-1.648;2023-02-28T10:10:35;102445.44;;;4.91;72.65
52693;BME280;68218;51.012;-1.648;2023-02-28T10:13:05;102440.25;;;4.97;72.58
52693;BME280;68218;51.012;-1.648;2023-02-28T10:15:34;102441.72;;;5.00;72.48
52693;BME280;68218;51.012;-1.648;2023-02-28T10:18:04;102441.59;;;4.85;72.38
52693;BME280;68218;51.012;-1.648;2023-02-28T10:20:38;102439.22;;;4.98;71.82
52693;BME280;68218;51.012;-1.648;2023-02-28T10:23:14;102445.41;;;4.99;71.67
52693;BME280;68218;51.012;-1.648;2023-02-28T10:25:54;102426.97;;;5.20;71.36
52693;BME280;68218;51.012;-1.648;2023-02-28T10:28:21;102433.25;;;5.36;70.94
52693;BME280;68218;51.012;-1.648;2023-02-28T10:30:47;102429.63;;;5.29;71.75
52693;BME280;68218;51.012;-1.648;2023-02-28T10:33:33;102422.25;;;5.31;71.03
52693;BME280;68218;51.012;-1.648;2023-02-28T10:36:00;102431.09;;;5.31;70.47
52693;BME280;68218;51.012;-1.648;2023-02-28T10:38:45;102429.34;;;5.07;71.49
52693;BME280;68218;51.012;-1.648;2023-02-28T10:41:28;102408.81;;;4.91;71.71
52693;BME280;68218;51.012;-1.648;2023-02-28T10:44:13;102403.75;;;5.13;72.30
52693;BME280;68218;51.012;-1.648;2023-02-28T10:46:40;102405.72;;;5.19;71.10
52693;BME280;68218;51.012;-1.648;2023-02-28T10:49:15;102415.25;;;5.30;71.37
52693;BME280;68218;51.012;-1.648;2023-02-28T10:51:42;102417.63;;;5.16;71.17
52693;BME280;68218;51.012;-1.648;2023-02-28T10:54:24;102395.59;;;4.98;71.80
52693;BME280;68218;51.012;-1.648;2023-02-28T10:59:40;102396.28;;;5.39;71.60
52693;BME280;68218;51.012;-1.648;2023-02-28T11:02:28;102389.75;;;5.73;71.01
52693;BME280;68218;51.012;-1.648;2023-02-28T11:04:54;102394.69;;;5.53;70.34
52693;BME280;68218;51.012;-1.648;2023-02-28T11:07:23;102413.41;;;5.22;71.45
52693;BME280;68218;51.012;-1.648;2023-02-28T11:09:51;102402.72;;;5.22;72.05
52693;BME280;68218;51.012;-1.648;2023-02-28T11:12:22;102390.53;;;5.19;71.83
52693;BME280;68218;51.012;-1.648;2023-02-28T11:14:54;102400.69;;;5.24;72.48
52693;BME280;68218;51.012;-1.648;2023-02-28T11:17:22;102397.69;;;5.19;71.83
52693;BME280;68218;51.012;-1.648;2023-02-28T11:19:51;102404.06;;;5.26;72.18
52693;BME280;68218;51.012;-1.648;2023-02-28T11:22:20;102402.69;;;5.30;71.58
52693;BME280;68218;51.012;-1.648;2023-02-28T11:24:50;102399.03;;;5.23;71.32
52693;BME280;68218;51.012;-1.648;2023-02-28T11:29:58;102398.97;;;5.31;70.71
52693;BME280;68218;51.012;-1.648;2023-02-28T11:32:28;102390.31;;;5.29;70.46
52693;BME280;68218;51.012;-1.648;2023-02-28T11:35:21;102395.66;;;5.29;70.57
52693;BME280;68218;51.012;-1.648;2023-02-28T11:37:48;102389.59;;;5.43;70.36
52693;BME280;68218;51.012;-1.648;2023-02-28T11:40:18;102377.94;;;5.59;70.13
52693;BME280;68218;51.012;-1.648;2023-02-28T11:42:54;102376.84;;;5.77;69.30
52693;BME280;68218;51.012;-1.648;2023-02-28T11:48:38;102368.28;;;5.81;69.39
52693;BME280;68218;51.012;-1.648;2023-02-28T11:51:18;102378.47;;;5.86;68.71
52693;BME280;68218;51.012;-1.648;2023-02-28T12:10:26;102333.81;;;6.25;69.69
52693;BME280;68218;51.012;-1.648;2023-02-28T12:12:59;102327.84;;;6.37;68.18
52693;BME280;68218;51.012;-1.648;2023-02-28T12:23:54;102338.47;;;6.08;68.24
52693;BME280;68218;51.012;-1.648;2023-02-28T12:26:44;102334.34;;;6.05;68.99
52693;BME280;68218;51.012;-1.648;2023-02-28T12:31:45;102332.75;;;5.88;69.49
52693;BME280;68218;51.012;-1.648;2023-02-28T12:34:16;102335.25;;;5.89;69.92
52693;BME280;68218;51.012;-1.648;2023-02-28T12:36:46;102336.63;;;5.85;69.58
52693;BME280;68218;51.012;-1.648;2023-02-28T12:39:16;102322.03;;;5.88;69.39
52693;BME280;68218;51.012;-1.648;2023-02-28T12:41:56;102310.97;;;5.91;69.36
52693;BME280;68218;51.012;-1.648;2023-02-28T12:44:35;102311.09;;;5.97;69.79
52693;BME280;68218;51.012;-1.648;2023-02-28T12:47:05;102304.88;;;6.05;69.54
52693;BME280;68218;51.012;-1.648;2023-02-28T12:49:39;102309.13;;;6.14;69.33
52693;BME280;68218;51.012;-1.648;2023-02-28T12:52:08;102305.06;;;6.18;69.67
52693;BME280;68218;51.012;-1.648;2023-02-28T12:57:10;102305.41;;;6.00;69.96
52693;BME280;68218;51.012;-1.648;2023-02-28T12:59:43;102305.25;;;5.94;70.41
52693;BME280;68218;51.012;-1.648;2023-02-28T13:10:43;102272.94;;;5.95;70.30
52693;BME280;68218;51.012;-1.648;2023-02-28T13:13:15;102283.81;;;5.94;70.32
52693;BME280;68218;51.012;-1.648;2023-02-28T13:16:00;102275.31;;;5.90;70.65
52693;BME280;68218;51.012;-1.648;2023-02-28T13:18:35;102271.44;;;5.93;70.94
52693;BME280;68218;51.012;-1.648;2023-02-28T13:21:03;102266.50;;;6.05;71.04
52693;BME280;68218;51.012;-1.648;2023-02-28T13:26:09;102249.25;;;6.07;71.09
52693;BME280;68218;51.012;-1.648;2023-02-28T13:31:19;102193.38;;;6.34;70.94
52693;BME280;68218;51.012;-1.648;2023-02-28T13:36:23;102159.69;;;7.19;66.70
52693;BME280;68218;51.012;-1.648;2023-02-28T13:44:21;102194.56;;;6.98;68.40
52693;BME280;68218;51.012;-1.648;2023-02-28T13:51:52;102189.94;;;6.91;67.96
52693;BME280;68218;51.012;-1.648;2023-02-28T14:00:42;102188.25;;;6.69;68.09
52693;BME280;68218;51.012;-1.648;2023-02-28T14:05:44;102185.56;;;6.69;67.38
52693;BME280;68218;51.012;-1.648;2023-02-28T14:08:17;102167.66;;;6.54;68.15
52693;BME280;68218;51.012;-1.648;2023-02-28T14:10:48;102156.47;;;6.51;68.60
52693;BME280;68218;51.012;-1.648;2023-02-28T14:16:02;102155.44;;;6.67;68.78
52693;BME280;68218;51.012;-1.648;2023-02-28T14:18:34;102153.47;;;6.75;67.98
52693;BME280;68218;51.012;-1.648;2023-02-28T14:32:26;102141.88;;;7.11;66.65
52693;BME280;68218;51.012;-1.648;2023-02-28T14:35:10;102148.09;;;6.97;66.96
52693;BME280;68218;51.012;-1.648;2023-02-28T14:37:41;102154.69;;;6.94;66.96
52693;BME280;68218;51.012;-1.648;2023-02-28T14:40:26;102138.59;;;6.94;66.83
52693;BME280;68218;51.012;-1.648;2023-02-28T14:43:01;102137.06;;;7.07;66.82
52693;BME280;68218;51.012;-1.648;2023-02-28T14:45:29;102144.38;;;7.13;66.58
52693;BME280;68218;51.012;-1.648;2023-02-28T14:47:56;102134.00;;;7.10;66.07
52693;BME280;68218;51.012;-1.648;2023-02-28T14:50:34;102133.88;;;7.18;66.11
52693;BME280;68218;51.012;-1.648;2023-02-28T14:53:00;102126.72;;;7.25;65.59
52693;BME280;68218;51.012;-1.648;2023-02-28T14:55:29;102133.72;;;7.26;65.87
52693;BME280;68218;51.012;-1.648;2023-02-28T14:57:59;102125.03;;;7.24;65.53
52693;BME280;68218;51.012;-1.648;2023-02-28T15:00:35;102125.22;;;7.23;65.83
52693;BME280;68218;51.012;-1.648;2023-02-28T15:03:19;102137.16;;;7.42;66.38
52693;BME280;68218;51.012;-1.648;2023-02-28T15:05:56;102130.16;;;7.19;66.13
52693;BME280;68218;51.012;-1.648;2023-02-28T15:08:23;102137.38;;;7.19;66.16
52693;BME280;68218;51.012;-1.648;2023-02-28T15:10:53;102135.03;;;7.09;66.49
52693;BME280;68218;51.012;-1.648;2023-02-28T15:13:19;102143.91;;;7.09;66.71